sensor_id;sensor_type;location;lat;lon;timestamp;P1;durP1;ratioP1;P2;durP2;ratioP2
71959;SDS011;59832;51.146;14.024;2023-06-01T04:02:32;3.85;;;2.50;;
71959;SDS011;59832;51.146;14.024;2023-06-01T04:04:59;3.47;;;2.80;;
71959;SDS011;59832;51.146;14.024;2023-06-01T04:07:26;7.50;;;3.15;;
71959;SDS011;59832;51.146;14.024;2023-06-01T04:09:53;7.57;;;3.50;;
71959;SDS011;59832;51.146;14.024;2023-06-01T04:12:20;7.43;;;3.33;;
71959;SDS011;59832;51.146;14.024;2023-06-01T04:14:46;3.55;;;3.25;;
71959;SDS011;59832;51.146;14.024;2023-06-01T04:17:13;8.90;;;3.78;;
71959;SDS011;59832;51.146;14.024;2023-06-01T04:19:39;9.10;;;3.50;;
71959;SDS011;59832;51.146;14.024;2023-06-01T04:22:06;5.38;;;3.83;;
71959;SDS011;59832;51.146;14.024;2023-06-01T04:24:32;8.95;;;4.18;;
71959;SDS011;59832;51.146;14.024;2023-06-01T04:26:59;5.85;;;3.88;;
71959;SDS011;59832;51.146;14.024;2023-06-01T04:29:26;5.03;;;3.63;;
71959;SDS011;59832;51.146;14.024;2023-06-01T04:31:52;6.00;;;3.73;;
71959;SDS011;59832;51.146;14.024;2023-06-01T04:34:21;6.72;;;3.88;;
71959;SDS011;59832;51.146;14.024;2023-06-01T04:36:50;10.77;;;4.10;;
71959;SDS011;59832;51.146;14.024;2023-06-01T04:39:17;7.15;;;3.50;;
71959;SDS011;59832;51.146;14.024;2023-06-01T04:41:44;6.60;;;3.78;;
71959;SDS011;59832;51.146;14.024;2023-06-01T04:44:10;4.03;;;3.42;;
71959;SDS011;59832;51.146;14.024;2023-06-01T04:46:39;4.82;;;3.50;;
71959;SDS011;59832;51.146;14.024;2023-06-01T04:49:07;5.45;;;3.72;;
71959;SDS011;59832;51.146;14.024;2023-06-01T04:51:34;5.13;;;3.23;;
71959;SDS011;59832;51.146;14.024;2023-06-01T04:54:02;7.20;;;3.28;;
71959;SDS011;59832;51.146;14.024;2023-06-01T04:56:29;4.90;;;3.00;;
71959;SDS011;59832;51.146;14.024;2023-06-01T04:58:56;5.18;;;3.35;;
71959;SDS011;59832;51.146;14.024;2023-06-01T05:01:23;4.88;;;2.83;;
71959;SDS011;59832;51.146;14.024;2023-06-01T05:03:55;3.95;;;3.25;;
71959;SDS011;59832;51.146;14.024;2023-06-01T05:06:23;4.80;;;2.97;;
71959;SDS011;59832;51.146;14.024;2023-06-01T05:08:51;5.13;;;2.83;;
71959;SDS011;59832;51.146;14.024;2023-06-01T05:11:17;3.47;;;2.70;;
71959;SDS011;59832;51.146;14.024;2023-06-01T05:13:44;4.50;;;3.00;;
71959;SDS011;59832;51.146;14.024;2023-06-01T05:16:11;4.95;;;3.15;;
71959;SDS011;59832;51.146;14.024;2023-06-01T05:18:38;3.53;;;2.65;;
71959;SDS011;59832;51.146;14.024;2023-06-01T05:21:04;4.93;;;3.30;;
71959;SDS011;59832;51.146;14.024;2023-06-01T05:23:31;3.28;;;2.97;;
71959;SDS011;59832;51.146;14.024;2023-06-01T05:25:58;2.95;;;2.50;;
71959;SDS011;59832;51.146;14.024;2023-06-01T05:28:29;3.10;;;2.53;;
71959;SDS011;59832;51.146;14.024;2023-06-01T05:30:59;4.00;;;2.63;;
71959;SDS011;59832;51.146;14.024;2023-06-01T05:33:27;3.95;;;2.80;;
71959;SDS011;59832;51.146;14.024;2023-06-01T05:35:53;4.50;;;2.80;;
71959;SDS011;59832;51.146;14.024;2023-06-01T05:38:20;4.47;;;2.90;;
71959;SDS011;59832;51.146;14.024;2023-06-01T05:40:46;4.93;;;2.63;;
71959;SDS011;59832;51.146;14.024;2023-06-01T05:43:13;3.65;;;2.78;;
71959;SDS011;59832;51.146;14.024;2023-06-01T05:45:40;5.10;;;2.97;;
71959;SDS011;59832;51.146;14.024;2023-06-01T05:48:08;4.18;;;3.10;;
71959;SDS011;59832;51.146;14.024;2023-06-01T05:50:34;4.15;;;2.80;;
71959;SDS011;59832;51.146;14.024;2023-06-01T05:53:01;4.40;;;3.00;;
71959;SDS011;59832;51.146;14.024;2023-06-01T05:55:27;5.10;;;2.67;;
71959;SDS011;59832;51.146;14.024;2023-06-01T05:57:54;4.20;;;2.53;;
71959;SDS011;59832;51.146;14.024;2023-06-01T06:00:21;4.47;;;2.90;;
71959;SDS011;59832;51.146;14.024;2023-06-01T06:02:47;4.87;;;2.60;;
71959;SDS011;59832;51.146;14.024;2023-06-01T06:05:14;4.85;;;2.88;;
71959;SDS011;59832;51.146;14.024;2023-06-01T06:07:41;3.38;;;2.60;;
71959;SDS011;59832;51.146;14.024;2023-06-01T06:10:08;6.85;;;3.03;;
71959;SDS011;59832;51.146;14.024;2023-06-01T06:12:35;6.57;;;2.90;;
71959;SDS011;59832;51.146;14.024;2023-06-01T06:15:01;5.10;;;2.70;;
71959;SDS011;59832;51.146;14.024;2023-06-01T06:17:30;3.88;;;2.60;;
71959;SDS011;59832;51.146;14.024;2023-06-01T06:19:56;5.88;;;2.70;;
71959;SDS011;59832;51.146;14.024;2023-06-01T06:22:23;2.88;;;2.60;;
71959;SDS011;59832;51.146;14.024;2023-06-01T06:24:50;8.02;;;3.00;;
71959;SDS011;59832;51.146;14.024;2023-06-01T06:27:16;4.23;;;3.07;;
71959;SDS011;59832;51.146;14.024;2023-06-01T06:29:43;3.60;;;2.92;;
71959;SDS011;59832;51.146;14.024;2023-06-01T06:32:09;5.30;;;3.00;;
71959;SDS011;59832;51.146;14.024;2023-06-01T06:34:36;5.47;;;3.08;;
71959;SDS011;59832;51.146;14.024;2023-06-01T06:37:03;3.83;;;3.00;;
71959;SDS011;59832;51.146;14.024;2023-06-01T06:39:33;4.35;;;3.05;;
71959;SDS011;59832;51.146;14.024;2023-06-01T06:42:00;7.07;;;2.97;;
71959;SDS011;59832;51.146;14.024;2023-06-01T06:44:29;9.65;;;2.92;;
71959;SDS011;59832;51.146;14.024;2023-06-01T06:46:57;6.37;;;2.73;;
71959;SDS011;59832;51.146;14.024;2023-06-01T06:49:27;4.20;;;2.70;;
71959;SDS011;59832;51.146;14.024;2023-06-01T06:51:54;6.35;;;2.45;;
71959;SDS011;59832;51.146;14.024;2023-06-01T06:54:21;4.38;;;2.38;;
71959;SDS011;59832;51.146;14.024;2023-06-01T06:56:48;4.55;;;2.70;;
71959;SDS011;59832;51.146;14.024;2023-06-01T06:59:14;6.28;;;2.58;;
71959;SDS011;59832;51.146;14.024;2023-06-01T07:01:41;5.10;;;2.38;;
71959;SDS011;59832;51.146;14.024;2023-06-01T07:04:08;3.95;;;2.42;;
71959;SDS011;59832;51.146;14.024;2023-06-01T07:06:35;3.92;;;2.60;;
71959;SDS011;59832;51.146;14.024;2023-06-01T07:09:03;3.15;;;2.45;;
71959;SDS011;59832;51.146;14.024;2023-06-01T07:11:31;3.20;;;2.38;;
71959;SDS011;59832;51.146;14.024;2023-06-01T07:13:57;3.35;;;1.98;;
71959;SDS011;59832;51.146;14.024;2023-06-01T07:16:24;5.65;;;2.22;;
71959;SDS011;59832;51.146;14.024;2023-06-01T07:18:51;4.13;;;2.47;;
71959;SDS011;59832;51.146;14.024;2023-06-01T07:21:34;4.32;;;2.30;;
71959;SDS011;59832;51.146;14.024;2023-06-01T07:24:03;3.00;;;2.22;;
71959;SDS011;59832;51.146;14.024;2023-06-01T07:26:30;3.08;;;2.47;;
71959;SDS011;59832;51.146;14.024;2023-06-01T07:28:57;3.65;;;2.50;;
71959;SDS011;59832;51.146;14.024;2023-06-01T07:31:23;3.58;;;2.70;;
71959;SDS011;59832;51.146;14.024;2023-06-01T07:36:18;5.30;;;2.22;;
71959;SDS011;59832;51.146;14.024;2023-06-01T07:38:46;8.77;;;2.50;;
71959;SDS011;59832;51.146;14.024;2023-06-01T07:41:12;4.85;;;2.00;;
71959;SDS011;59832;51.146;14.024;2023-06-01T07:43:39;6.35;;;2.55;;
71959;SDS011;59832;51.146;14.024;2023-06-01T07:46:05;3.65;;;2.22;;
71959;SDS011;59832;51.146;14.024;2023-06-01T07:48:32;3.58;;;2.40;;
71959;SDS011;59832;51.146;14.024;2023-06-01T07:51:02;5.53;;;2.20;;
71959;SDS011;59832;51.146;14.024;2023-06-01T07:53:30;3.55;;;2.30;;
71959;SDS011;59832;51.146;14.024;2023-06-01T07:55:57;3.53;;;2.40;;
71959;SDS011;59832;51.146;14.024;2023-06-01T07:58:24;3.65;;;2.40;;
71959;SDS011;59832;51.146;14.024;2023-06-01T08:00:51;3.90;;;2.03;;
71959;SDS011;59832;51.146;14.024;2023-06-01T08:03:18;2.83;;;2.10;;
71959;SDS011;59832;51.146;14.024;2023-06-01T08:05:47;2.92;;;2.08;;
71959;SDS011;59832;51.146;14.024;2023-06-01T08:08:14;5.18;;;2.10;;
71959;SDS011;59832;51.146;14.024;2023-06-01T08:10:41;3.78;;;2.03;;
71959;SDS011;59832;51.146;14.024;2023-06-01T08:13:08;3.22;;;2.35;;
71959;SDS011;59832;51.146;14.024;2023-06-01T08:15:35;3.78;;;2.08;;
71959;SDS011;59832;51.146;14.024;2023-06-01T08:18:04;3.30;;;2.03;;
71959;SDS011;59832;51.146;14.024;2023-06-01T08:20:32;2.72;;;2.20;;
71959;SDS011;59832;51.146;14.024;2023-06-01T08:27:53;3.70;;;2.22;;
71959;SDS011;59832;51.146;14.024;2023-06-01T08:30:20;5.60;;;2.30;;
71959;SDS011;59832;51.146;14.024;2023-06-01T08:32:46;2.67;;;2.10;;
71959;SDS011;59832;51.146;14.024;2023-06-01T08:35:15;4.82;;;2.45;;
71959;SDS011;59832;51.146;14.024;2023-06-01T08:37:41;4.43;;;2.20;;
71959;SDS011;59832;51.146;14.024;2023-06-01T08:40:08;6.70;;;2.20;;
71959;SDS011;59832;51.146;14.024;2023-06-01T08:45:11;3.47;;;2.33;;
71959;SDS011;59832;51.146;14.024;2023-06-01T08:47:39;2.67;;;2.00;;
71959;SDS011;59832;51.146;14.024;2023-06-01T08:50:10;4.10;;;2.13;;
71959;SDS011;59832;51.146;14.024;2023-06-01T08:52:37;4.63;;;2.20;;
71959;SDS011;59832;51.146;14.024;2023-06-01T08:55:05;2.45;;;1.92;;
71959;SDS011;59832;51.146;14.024;2023-06-01T08:57:34;4.13;;;2.05;;
71959;SDS011;59832;51.146;14.024;2023-06-01T09:00:02;2.88;;;1.88;;
71959;SDS011;59832;51.146;14.024;2023-06-01T09:02:29;3.50;;;1.95;;
71959;SDS011;59832;51.146;14.024;2023-06-01T09:04:55;3.13;;;1.90;;
71959;SDS011;59832;51.146;14.024;2023-06-01T09:07:22;3.67;;;1.80;;
71959;SDS011;59832;51.146;14.024;2023-06-01T09:09:49;5.03;;;2.20;;
71959;SDS011;59832;51.146;14.024;2023-06-01T09:12:19;3.60;;;1.58;;
71959;SDS011;59832;51.146;14.024;2023-06-01T09:14:49;5.28;;;1.65;;
71959;SDS011;59832;51.146;14.024;2023-06-01T09:17:20;3.53;;;1.90;;
71959;SDS011;59832;51.146;14.024;2023-06-01T09:19:50;5.47;;;1.70;;
71959;SDS011;59832;51.146;14.024;2023-06-01T09:22:19;2.80;;;1.73;;
71959;SDS011;59832;51.146;14.024;2023-06-01T09:24:54;2.75;;;1.73;;
71959;SDS011;59832;51.146;14.024;2023-06-01T09:27:22;3.65;;;1.90;;
71959;SDS011;59832;51.146;14.024;2023-06-01T09:29:53;1.65;;;1.38;;
71959;SDS011;59832;51.146;14.024;2023-06-01T09:32:23;3.75;;;1.92;;
71959;SDS011;59832;51.146;14.024;2023-06-01T09:34:50;5.25;;;1.77;;
71959;SDS011;59832;51.146;14.024;2023-06-01T09:37:16;2.83;;;1.90;;
71959;SDS011;59832;51.146;14.024;2023-06-01T09:39:43;2.47;;;1.70;;
71959;SDS011;59832;51.146;14.024;2023-06-01T09:44:37;2.45;;;1.73;;
71959;SDS011;59832;51.146;14.024;2023-06-01T09:47:06;2.58;;;1.83;;
71959;SDS011;59832;51.146;14.024;2023-06-01T09:49:40;5.95;;;1.95;;
71959;SDS011;59832;51.146;14.024;2023-06-01T09:52:10;3.13;;;1.70;;
71959;SDS011;59832;51.146;14.024;2023-06-01T09:54:41;4.78;;;1.67;;
71959;SDS011;59832;51.146;14.024;2023-06-01T09:57:12;3.17;;;1.67;;
71959;SDS011;59832;51.146;14.024;2023-06-01T09:59:46;3.65;;;1.92;;
71959;SDS011;59832;51.146;14.024;2023-06-01T10:02:14;1.60;;;1.50;;
71959;SDS011;59832;51.146;14.024;2023-06-01T10:04:50;2.35;;;1.67;;
71959;SDS011;59832;51.146;14.024;2023-06-01T10:07:19;3.13;;;1.87;;
71959;SDS011;59832;51.146;14.024;2023-06-01T10:09:58;4.40;;;2.00;;
71959;SDS011;59832;51.146;14.024;2023-06-01T10:12:29;3.47;;;1.95;;
71959;SDS011;59832;51.146;14.024;2023-06-01T10:14:58;4.13;;;1.75;;
71959;SDS011;59832;51.146;14.024;2023-06-01T10:17:26;2.53;;;2.00;;
71959;SDS011;59832;51.146;14.024;2023-06-01T10:22:22;3.70;;;2.10;;
71959;SDS011;59832;51.146;14.024;2023-06-01T10:27:20;3.60;;;1.95;;
71959;SDS011;59832;51.146;14.024;2023-06-01T10:29:51;4.63;;;1.80;;
71959;SDS011;59832;51.146;14.024;2023-06-01T10:40:33;4.07;;;1.98;;
71959;SDS011;59832;51.146;14.024;2023-06-01T10:43:00;2.78;;;1.90;;
71959;SDS011;59832;51.146;14.024;2023-06-01T10:48:07;4.97;;;2.35;;
71959;SDS011;59832;51.146;14.024;2023-06-01T10:50:38;2.33;;;2.10;;
71959;SDS011;59832;51.146;14.024;2023-06-01T10:53:40;2.97;;;2.00;;
71959;SDS011;59832;51.146;14.024;2023-06-01T10:56:33;2.42;;;1.83;;
71959;SDS011;59832;51.146;14.024;2023-06-01T11:01:41;8.07;;;2.40;;
71959;SDS011;59832;51.146;14.024;2023-06-01T11:04:09;3.45;;;2.00;;
71959;SDS011;59832;51.146;14.024;2023-06-01T11:06:38;3.10;;;2.15;;
71959;SDS011;59832;51.146;14.024;2023-06-01T11:09:06;4.85;;;2.17;;
71959;SDS011;59832;51.146;14.024;2023-06-01T11:14:19;5.68;;;2.25;;
71959;SDS011;59832;51.146;14.024;2023-06-01T11:16:51;3.40;;;2.10;;
71959;SDS011;59832;51.146;14.024;2023-06-01T11:19:19;5.45;;;2.50;;
71959;SDS011;59832;51.146;14.024;2023-06-01T11:21:47;2.58;;;2.20;;
71959;SDS011;59832;51.146;14.024;2023-06-01T11:24:14;2.42;;;2.13;;
71959;SDS011;59832;51.146;14.024;2023-06-01T11:26:46;3.90;;;2.20;;
71959;SDS011;59832;51.146;14.024;2023-06-01T11:29:18;2.95;;;2.00;;
71959;SDS011;59832;51.146;14.024;2023-06-01T11:31:48;2.17;;;1.58;;
71959;SDS011;59832;51.146;14.024;2023-06-01T11:34:19;4.97;;;2.35;;
71959;SDS011;59832;51.146;14.024;2023-06-01T11:37:00;3.75;;;2.00;;
71959;SDS011;59832;51.146;14.024;2023-06-01T11:39:28;3.38;;;2.25;;
71959;SDS011;59832;51.146;14.024;2023-06-01T11:42:03;6.30;;;2.30;;
71959;SDS011;59832;51.146;14.024;2023-06-01T11:44:35;3.53;;;1.80;;
71959;SDS011;59832;51.146;14.024;2023-06-01T11:47:03;4.10;;;2.22;;
71959;SDS011;59832;51.146;14.024;2023-06-01T11:49:41;3.28;;;1.85;;
71959;SDS011;59832;51.146;14.024;2023-06-01T11:52:10;3.15;;;2.30;;
71959;SDS011;59832;51.146;14.024;2023-06-01T11:54:37;3.38;;;2.10;;
71959;SDS011;59832;51.146;14.024;2023-06-01T11:57:04;3.08;;;2.30;;
71959;SDS011;59832;51.146;14.024;2023-06-01T11:59:37;2.63;;;2.05;;
71959;SDS011;59832;51.146;14.024;2023-06-01T12:02:20;3.63;;;2.50;;
71959;SDS011;59832;51.146;14.024;2023-06-01T12:04:58;2.80;;;2.50;;
71959;SDS011;59832;51.146;14.024;2023-06-01T12:07:28;6.93;;;2.90;;
71959;SDS011;59832;51.146;14.024;2023-06-01T12:09:54;2.92;;;2.60;;
71959;SDS011;59832;51.146;14.024;2023-06-01T12:12:23;4.28;;;2.50;;
71959;SDS011;59832;51.146;14.024;2023-06-01T12:14:50;6.07;;;2.70;;
71959;SDS011;59832;51.146;14.024;2023-06-01T12:17:18;4.03;;;2.60;;
71959;SDS011;59832;51.146;14.024;2023-06-01T12:22:13;2.83;;;2.45;;
71959;SDS011;59832;51.146;14.024;2023-06-01T12:24:41;4.10;;;3.08;;
71959;SDS011;59832;51.146;14.024;2023-06-01T12:27:14;4.85;;;2.80;;
71959;SDS011;59832;51.146;14.024;2023-06-01T12:29:47;4.63;;;2.67;;
71959;SDS011;59832;51.146;14.024;2023-06-01T12:32:18;3.50;;;3.10;;
71959;SDS011;59832;51.146;14.024;2023-06-01T12:35:02;2.95;;;2.65;;
71959;SDS011;59832;51.146;14.024;2023-06-01T12:37:31;3.08;;;2.60;;
71959;SDS011;59832;51.146;14.024;2023-06-01T12:39:57;3.92;;;2.95;;
71959;SDS011;59832;51.146;14.024;2023-06-01T12:42:38;2.90;;;2.60;;
71959;SDS011;59832;51.146;14.024;2023-06-01T12:45:06;6.55;;;2.78;;
71959;SDS011;59832;51.146;14.024;2023-06-01T12:50:05;2.92;;;2.58;;
71959;SDS011;59832;51.146;14.024;2023-06-01T12:52:33;3.13;;;2.80;;
71959;SDS011;59832;51.146;14.024;2023-06-01T12:54:59;6.03;;;3.17;;
71959;SDS011;59832;51.146;14.024;2023-06-01T12:57:26;3.75;;;2.70;;
71959;SDS011;59832;51.146;14.024;2023-06-01T12:59:53;4.75;;;3.10;;
71959;SDS011;59832;51.146;14.024;2023-06-01T13:02:19;4.65;;;3.80;;
71959;SDS011;59832;51.146;14.024;2023-06-01T13:04:47;5.70;;;3.67;;
71959;SDS011;59832;51.146;14.024;2023-06-01T13:07:13;4.00;;;3.60;;
71959;SDS011;59832;51.146;14.024;2023-06-01T13:09:40;6.57;;;4.00;;
71959;SDS011;59832;51.146;14.024;2023-06-01T13:12:07;5.40;;;4.60;;
71959;SDS011;59832;51.146;14.024;2023-06-01T13:14:34;5.68;;;4.32;;
71959;SDS011;59832;51.146;14.024;2023-06-01T13:17:01;6.90;;;4.65;;
71959;SDS011;59832;51.146;14.024;2023-06-01T13:19:29;5.85;;;4.43;;
71959;SDS011;59832;51.146;14.024;2023-06-01T13:21:56;5.72;;;4.60;;
71959;SDS011;59832;51.146;14.024;2023-06-01T13:24:23;7.57;;;4.60;;
71959;SDS011;59832;51.146;14.024;2023-06-01T13:26:50;4.72;;;4.00;;
71959;SDS011;59832;51.146;14.024;2023-06-01T13:29:17;4.20;;;3.72;;
71959;SDS011;59832;51.146;14.024;2023-06-01T13:31:43;5.43;;;3.90;;
71959;SDS011;59832;51.146;14.024;2023-06-01T13:34:10;3.90;;;3.55;;
71959;SDS011;59832;51.146;14.024;2023-06-01T13:36:37;3.95;;;3.55;;
71959;SDS011;59832;51.146;14.024;2023-06-01T13:39:04;4.60;;;3.80;;
71959;SDS011;59832;51.146;14.024;2023-06-01T13:41:30;4.82;;;3.42;;
71959;SDS011;59832;51.146;14.024;2023-06-01T13:43:57;5.03;;;3.38;;
71959;SDS011;59832;51.146;14.024;2023-06-01T13:46:23;4.30;;;3.42;;
71959;SDS011;59832;51.146;14.024;2023-06-01T13:48:50;4.30;;;3.50;;
71959;SDS011;59832;51.146;14.024;2023-06-01T13:51:16;4.53;;;3.83;;
71959;SDS011;59832;51.146;14.024;2023-06-01T13:53:43;5.00;;;3.42;;
71959;SDS011;59832;51.146;14.024;2023-06-01T13:56:10;4.28;;;3.55;;
71959;SDS011;59832;51.146;14.024;2023-06-01T13:58:36;6.25;;;3.80;;
71959;SDS011;59832;51.146;14.024;2023-06-01T14:01:03;5.55;;;3.63;;
71959;SDS011;59832;51.146;14.024;2023-06-01T14:03:30;3.95;;;3.15;;
71959;SDS011;59832;51.146;14.024;2023-06-01T14:05:57;4.90;;;3.63;;
71959;SDS011;59832;51.146;14.024;2023-06-01T14:08:24;6.82;;;3.58;;
71959;SDS011;59832;51.146;14.024;2023-06-01T14:10:50;5.38;;;3.22;;
71959;SDS011;59832;51.146;14.024;2023-06-01T14:13:17;3.38;;;2.90;;
71959;SDS011;59832;51.146;14.024;2023-06-01T14:15:44;3.58;;;3.28;;
71959;SDS011;59832;51.146;14.024;2023-06-01T14:18:10;5.50;;;3.53;;
71959;SDS011;59832;51.146;14.024;2023-06-01T14:20:37;4.15;;;3.58;;
71959;SDS011;59832;51.146;14.024;2023-06-01T14:23:04;3.33;;;2.92;;
71959;SDS011;59832;51.146;14.024;2023-06-01T14:25:31;2.97;;;2.65;;
71959;SDS011;59832;51.146;14.024;2023-06-01T14:27:57;5.38;;;3.00;;
71959;SDS011;59832;51.146;14.024;2023-06-01T14:30:24;5.03;;;2.97;;
71959;SDS011;59832;51.146;14.024;2023-06-01T14:32:52;4.78;;;3.00;;
71959;SDS011;59832;51.146;14.024;2023-06-01T14:35:20;3.28;;;2.60;;
71959;SDS011;59832;51.146;14.024;2023-06-01T14:40:15;5.10;;;2.75;;
71959;SDS011;59832;51.146;14.024;2023-06-01T14:42:42;4.15;;;2.53;;
71959;SDS011;59832;51.146;14.024;2023-06-01T14:45:09;4.10;;;2.13;;
71959;SDS011;59832;51.146;14.024;2023-06-01T14:47:37;2.85;;;2.40;;
71959;SDS011;59832;51.146;14.024;2023-06-01T14:50:04;2.35;;;2.15;;
71959;SDS011;59832;51.146;14.024;2023-06-01T14:52:31;2.75;;;2.15;;
71959;SDS011;59832;51.146;14.024;2023-06-01T14:54:57;3.47;;;2.53;;
71959;SDS011;59832;51.146;14.024;2023-06-01T14:57:24;2.20;;;1.90;;
71959;SDS011;59832;51.146;14.024;2023-06-01T14:59:50;2.03;;;1.77;;
71959;SDS011;59832;51.146;14.024;2023-06-01T15:02:29;3.05;;;2.03;;
71959;SDS011;59832;51.146;14.024;2023-06-01T15:04:56;2.67;;;2.13;;
71959;SDS011;59832;51.146;14.024;2023-06-01T15:07:22;3.65;;;2.13;;
71959;SDS011;59832;51.146;14.024;2023-06-01T15:09:49;4.88;;;2.83;;
71959;SDS011;59832;51.146;14.024;2023-06-01T15:12:15;3.03;;;2.30;;
71959;SDS011;59832;51.146;14.024;2023-06-01T15:14:42;2.47;;;2.10;;
71959;SDS011;59832;51.146;14.024;2023-06-01T15:17:09;3.22;;;2.10;;
71959;SDS011;59832;51.146;14.024;2023-06-01T15:19:36;2.20;;;2.00;;
71959;SDS011;59832;51.146;14.024;2023-06-01T15:22:11;3.15;;;2.00;;
71959;SDS011;59832;51.146;14.024;2023-06-01T15:24:37;5.80;;;2.30;;
71959;SDS011;59832;51.146;14.024;2023-06-01T15:27:06;2.65;;;1.98;;
71959;SDS011;59832;51.146;14.024;2023-06-01T15:29:33;2.30;;;2.10;;
71959;SDS011;59832;51.146;14.024;2023-06-01T15:32:01;4.57;;;2.42;;
71959;SDS011;59832;51.146;14.024;2023-06-01T15:34:28;4.38;;;2.25;;
71959;SDS011;59832;51.146;14.024;2023-06-01T15:36:55;3.13;;;2.15;;
71959;SDS011;59832;51.146;14.024;2023-06-01T15:39:21;3.85;;;2.40;;
71959;SDS011;59832;51.146;14.024;2023-06-01T15:41:48;3.40;;;2.92;;
71959;SDS011;59832;51.146;14.024;2023-06-01T15:44:22;2.60;;;2.00;;
71959;SDS011;59832;51.146;14.024;2023-06-01T15:46:49;9.05;;;2.50;;
71959;SDS011;59832;51.146;14.024;2023-06-01T15:49:15;2.60;;;2.15;;
71959;SDS011;59832;51.146;14.024;2023-06-01T15:51:42;4.18;;;2.50;;
71959;SDS011;59832;51.146;14.024;2023-06-01T15:54:08;4.05;;;2.40;;
71959;SDS011;59832;51.146;14.024;2023-06-01T15:56:35;6.35;;;2.60;;
71959;SDS011;59832;51.146;14.024;2023-06-01T15:59:02;3.85;;;2.30;;
71959;SDS011;59832;51.146;14.024;2023-06-01T16:01:28;6.40;;;2.55;;
71959;SDS011;59832;51.146;14.024;2023-06-01T16:03:56;2.70;;;2.40;;
71959;SDS011;59832;51.146;14.024;2023-06-01T16:06:23;2.30;;;2.08;;
71959;SDS011;59832;51.146;14.024;2023-06-01T16:08:50;2.85;;;2.28;;
71959;SDS011;59832;51.146;14.024;2023-06-01T16:11:16;3.85;;;2.40;;
71959;SDS011;59832;51.146;14.024;2023-06-01T16:13:43;3.38;;;2.40;;
71959;SDS011;59832;51.146;14.024;2023-06-01T16:16:09;3.22;;;2.50;;
71959;SDS011;59832;51.146;14.024;2023-06-01T16:18:37;2.35;;;2.15;;
71959;SDS011;59832;51.146;14.024;2023-06-01T16:21:04;4.22;;;2.50;;
71959;SDS011;59832;51.146;14.024;2023-06-01T16:23:30;3.72;;;2.45;;
71959;SDS011;59832;51.146;14.024;2023-06-01T16:25:57;3.38;;;2.20;;
71959;SDS011;59832;51.146;14.024;2023-06-01T16:28:24;3.38;;;2.85;;
71959;SDS011;59832;51.146;14.024;2023-06-01T16:30:50;3.33;;;2.40;;
71959;SDS011;59832;51.146;14.024;2023-06-01T16:33:17;7.78;;;2.50;;
71959;SDS011;59832;51.146;14.024;2023-06-01T16:35:43;3.92;;;2.53;;
71959;SDS011;59832;51.146;14.024;2023-06-01T16:38:10;3.30;;;2.35;;
71959;SDS011;59832;51.146;14.024;2023-06-01T16:40:37;3.85;;;2.28;;
71959;SDS011;59832;51.146;14.024;2023-06-01T16:43:03;2.97;;;2.47;;
71959;SDS011;59832;51.146;14.024;2023-06-01T16:45:30;3.83;;;2.20;;
71959;SDS011;59832;51.146;14.024;2023-06-01T16:47:57;2.28;;;2.08;;
71959;SDS011;59832;51.146;14.024;2023-06-01T16:50:24;3.20;;;2.05;;
71959;SDS011;59832;51.146;14.024;2023-06-01T16:52:50;2.55;;;2.08;;
71959;SDS011;59832;51.146;14.024;2023-06-01T16:55:17;2.20;;;2.00;;
71959;SDS011;59832;51.146;14.024;2023-06-01T16:57:43;2.50;;;2.00;;
71959;SDS011;59832;51.146;14.024;2023-06-01T17:00:10;2.17;;;1.95;;
71959;SDS011;59832;51.146;14.024;2023-06-01T17:02:38;2.95;;;1.95;;
71959;SDS011;59832;51.146;14.024;2023-06-01T17:05:05;4.70;;;2.45;;
71959;SDS011;59832;51.146;14.024;2023-06-01T17:09:59;2.10;;;1.90;;
71959;SDS011;59832;51.146;14.024;2023-06-01T17:12:25;2.30;;;2.10;;
71959;SDS011;59832;51.146;14.024;2023-06-01T17:14:52;6.43;;;2.20;;
71959;SDS011;59832;51.146;14.024;2023-06-01T17:17:18;2.88;;;2.40;;
71959;SDS011;59832;51.146;14.024;2023-06-01T17:19:54;4.22;;;2.33;;
71959;SDS011;59832;51.146;14.024;2023-06-01T17:22:21;2.55;;;2.20;;
71959;SDS011;59832;51.146;14.024;2023-06-01T17:24:48;4.57;;;2.42;;
71959;SDS011;59832;51.146;14.024;2023-06-01T17:27:14;3.05;;;2.80;;
71959;SDS011;59832;51.146;14.024;2023-06-01T17:29:41;5.38;;;2.40;;
71959;SDS011;59832;51.146;14.024;2023-06-01T17:32:08;2.50;;;2.30;;
71959;SDS011;59832;51.146;14.024;2023-06-01T17:34:34;5.25;;;2.60;;
71959;SDS011;59832;51.146;14.024;2023-06-01T17:37:01;3.58;;;2.80;;
71959;SDS011;59832;51.146;14.024;2023-06-01T17:39:29;4.20;;;2.28;;
71959;SDS011;59832;51.146;14.024;2023-06-01T17:41:56;3.38;;;2.42;;
71959;SDS011;59832;51.146;14.024;2023-06-01T17:44:22;4.13;;;2.45;;
71959;SDS011;59832;51.146;14.024;2023-06-01T17:46:51;4.40;;;2.60;;
71959;SDS011;59832;51.146;14.024;2023-06-01T17:49:18;3.30;;;2.65;;
71959;SDS011;59832;51.146;14.024;2023-06-01T17:51:44;3.35;;;2.75;;
71959;SDS011;59832;51.146;14.024;2023-06-01T17:54:11;3.15;;;2.88;;
71959;SDS011;59832;51.146;14.024;2023-06-01T17:56:37;3.92;;;2.90;;
71959;SDS011;59832;51.146;14.024;2023-06-01T17:59:04;3.22;;;2.92;;
71959;SDS011;59832;51.146;14.024;2023-06-01T18:01:30;3.33;;;3.00;;
71959;SDS011;59832;51.146;14.024;2023-06-01T18:03:57;6.05;;;3.25;;
71959;SDS011;59832;51.146;14.024;2023-06-01T18:08:51;3.95;;;2.90;;
71959;SDS011;59832;51.146;14.024;2023-06-01T18:11:18;3.42;;;3.10;;
71959;SDS011;59832;51.146;14.024;2023-06-01T18:13:44;3.45;;;2.88;;
71959;SDS011;59832;51.146;14.024;2023-06-01T18:16:11;3.15;;;2.75;;
71959;SDS011;59832;51.146;14.024;2023-06-01T18:18:37;4.45;;;3.17;;
71959;SDS011;59832;51.146;14.024;2023-06-01T18:21:04;5.43;;;2.90;;
71959;SDS011;59832;51.146;14.024;2023-06-01T18:23:31;3.03;;;2.53;;
71959;SDS011;59832;51.146;14.024;2023-06-01T18:25:57;2.95;;;2.70;;
71959;SDS011;59832;51.146;14.024;2023-06-01T18:28:23;3.63;;;2.80;;
71959;SDS011;59832;51.146;14.024;2023-06-01T18:30:50;5.05;;;2.78;;
71959;SDS011;59832;51.146;14.024;2023-06-01T18:33:16;3.17;;;2.80;;
71959;SDS011;59832;51.146;14.024;2023-06-01T18:35:44;3.38;;;2.53;;
71959;SDS011;59832;51.146;14.024;2023-06-01T18:38:10;2.47;;;2.25;;
71959;SDS011;59832;51.146;14.024;2023-06-01T18:40:37;3.20;;;2.45;;
71959;SDS011;59832;51.146;14.024;2023-06-01T18:43:03;2.50;;;2.30;;
71959;SDS011;59832;51.146;14.024;2023-06-01T18:45:36;3.17;;;2.08;;
71959;SDS011;59832;51.146;14.024;2023-06-01T18:48:03;3.97;;;2.30;;
71959;SDS011;59832;51.146;14.024;2023-06-01T18:50:30;2.40;;;2.00;;
71959;SDS011;59832;51.146;14.024;2023-06-01T18:52:57;3.00;;;2.20;;
71959;SDS011;59832;51.146;14.024;2023-06-01T18:55:24;2.47;;;2.20;;
71959;SDS011;59832;51.146;14.024;2023-06-01T18:57:51;2.53;;;2.22;;
71959;SDS011;59832;51.146;14.024;2023-06-01T19:00:17;2.63;;;2.25;;
71959;SDS011;59832;51.146;14.024;2023-06-01T19:02:45;2.90;;;2.17;;
71959;SDS011;59832;51.146;14.024;2023-06-01T19:05:12;3.28;;;2.80;;
71959;SDS011;59832;51.146;14.024;2023-06-01T19:07:45;2.95;;;2.63;;
71959;SDS011;59832;51.146;14.024;2023-06-01T19:10:12;4.55;;;2.40;;
71959;SDS011;59832;51.146;14.024;2023-06-01T19:12:38;4.00;;;2.50;;
71959;SDS011;59832;51.146;14.024;2023-06-01T19:15:05;7.55;;;2.92;;
71959;SDS011;59832;51.146;14.024;2023-06-01T19:17:38;4.15;;;2.53;;
71959;SDS011;59832;51.146;14.024;2023-06-01T19:20:05;3.22;;;2.90;;
71959;SDS011;59832;51.146;14.024;2023-06-01T19:22:53;6.00;;;2.80;;
71959;SDS011;59832;51.146;14.024;2023-06-01T19:25:19;2.93;;;2.23;;